Time;durP1;ratioP1;P1;durP2;ratioP2;P2;SDS_P1;SDS_P2;PMS_P1;PMS_P2;Temp;Humidity;BMP_temperature;BMP_pressure;BME280_temperature;BME280_humidity;BME280_pressure;Samples;Min_cycle;Max_cycle;Signal;HPM_P1;HPM_P2
2022/12/02 07:13:13;;;;;;;24.15;22.30;;;;;;;10.43;68.09;101976.03;4999416;28;102449;-54
2022/12/02 07:15:41;;;;;;;13.30;12.30;;;;;;;10.40;68.45;101977.34;4978882;28;102202;-54
2022/12/02 07:18:12;;;;;;;11.82;10.82;;;;;;;10.40;68.11;101979.22;4979914;28;103894;-54
2022/12/02 07:20:41;;;;;;;12.65;11.75;;;;;;;10.40;68.15;101976.50;4984387;28;102331;-54
2022/12/02 07:23:14;;;;;;;12.68;11.55;;;;;;;10.40;68.46;101982.78;4981519;28;102072;-55
2022/12/02 07:25:43;;;;;;;11.57;10.48;;;;;;;10.43;68.41;101976.88;4986269;28;102505;-53
2022/12/02 07:28:23;;;;;;;11.63;10.75;;;;;;;10.42;68.24;101974.34;4988275;28;103859;-54
2022/12/02 07:30:56;;;;;;;11.95;11.02;;;;;;;10.40;68.28;101977.34;4975910;28;102762;-54
2022/12/02 07:33:23;;;;;;;13.50;12.23;;;;;;;10.39;68.01;101983.03;4967614;28;102496;-54
2022/12/02 07:35:49;;;;;;;12.32;11.38;;;;;;;10.40;68.25;101981.97;4967382;28;102250;-54
2022/12/02 07:38:16;;;;;;;13.70;12.32;;;;;;;10.36;68.43;101978.88;4964394;28;103909;-54
2022/12/02 07:40:45;;;;;;;13.63;12.43;;;;;;;10.36;68.50;101978.06;4965799;28;102054;-54
2022/12/02 07:43:12;;;;;;;13.77;12.77;;;;;;;10.36;68.43;101975.34;4964485;28;102191;-54
2022/12/02 07:45:40;;;;;;;14.15;12.95;;;;;;;10.36;68.09;101980.78;4966845;28;102613;-54
2022/12/02 07:48:07;;;;;;;14.20;13.20;;;;;;;10.38;68.30;101986.78;4963689;28;104079;-54
2022/12/02 07:50:34;;;;;;;13.63;12.52;;;;;;;10.38;68.44;101984.06;4965462;28;102672;-54
2022/12/02 07:53:00;;;;;;;14.60;13.50;;;;;;;10.38;68.03;101986.78;4964770;28;102590;-54
2022/12/02 08:08:35;;;;;;;57.28;53.85;;;;;;;10.37;68.03;101993.31;6100571;22;1407807;-54
2022/12/02 08:11:01;;;;;;;46.35;43.70;;;;;;;10.36;67.89;101997.09;6156414;22;102617;-54
2022/12/02 08:13:28;;;;;;;30.58;28.75;;;;;;;10.38;67.83;101998.50;6155854;22;103714;-54
2022/12/02 08:15:54;;;;;;;25.50;23.73;;;;;;;10.40;68.21;101996.38;6157464;22;102309;-54
2022/12/02 08:18:21;;;;;;;24.08;22.40;;;;;;;10.40;67.71;102004.56;6156710;22;102398;-54
2022/12/02 08:20:48;;;;;;;20.63;19.20;;;;;;;10.38;68.01;102000.41;6158701;22;102153;-54
2022/12/02 08:23:14;;;;;;;19.60;17.98;;;;;;;10.37;67.82;101993.31;6157801;22;103814;-54
2022/12/02 08:25:42;;;;;;;19.55;17.98;;;;;;;10.39;68.24;101997.47;6158469;22;102208;-54
2022/12/02 08:28:08;;;;;;;22.17;20.67;;;;;;;10.38;68.12;101995.78;6157535;22;102723;-54
2022/12/02 08:30:35;;;;;;;19.88;18.27;;;;;;;10.40;67.75;101998.28;6159630;22;102728;-54
2022/12/02 08:33:01;;;;;;;19.08;17.55;;;;;;;10.41;67.61;101997.22;6157085;22;104187;-54
2022/12/02 08:35:28;;;;;;;20.77;19.20;;;;;;;10.41;67.70;101992.59;6156556;22;102333;-54
2022/12/02 08:37:55;;;;;;;18.48;17.08;;;;;;;10.39;68.04;101981.13;6155866;22;102158;-54
2022/12/02 08:40:21;;;;;;;18.88;17.48;;;;;;;10.38;67.49;101994.97;6155888;22;102411;-53
2022/12/02 08:42:49;;;;;;;18.27;17.00;;;;;;;10.38;67.78;101989.53;6150763;22;103929;-54
2022/12/02 08:45:16;;;;;;;19.98;18.60;;;;;;;10.38;68.12;102000.41;6153010;22;102186;-54
2022/12/02 08:47:42;;;;;;;18.05;16.75;;;;;;;10.39;67.87;101986.56;6152352;22;102505;-54
2022/12/02 08:50:09;;;;;;;19.40;17.98;;;;;;;10.40;68.00;101998.28;6153960;22;102736;-53
2022/12/02 08:52:36;;;;;;;19.40;17.95;;;;;;;10.38;68.12;101990.34;6152156;22;103857;-53
2022/12/02 08:55:02;;;;;;;17.02;15.70;;;;;;;10.38;67.79;101995.78;6152776;22;102226;-53
2022/12/02 08:57:30;;;;;;;19.38;17.92;;;;;;;10.40;67.52;101992.84;6151073;22;102493;-54
2022/12/02 08:59:58;;;;;;;17.70;16.45;;;;;;;10.40;67.61;101981.97;6154406;22;102443;-54
2022/12/02 09:02:24;;;;;;;18.85;17.40;;;;;;;10.39;67.96;101988.47;6151146;22;103600;-54
2022/12/02 09:04:51;;;;;;;18.83;17.58;;;;;;;10.40;67.47;101976.50;6153750;22;102318;-54
2022/12/02 09:07:17;;;;;;;17.88;16.52;;;;;;;10.40;67.42;101981.97;6151148;22;102500;-54
2022/12/02 09:09:45;;;;;;;20.45;19.08;;;;;;;10.40;67.78;101979.22;6147768;22;102448;-54
2022/12/02 09:12:12;;;;;;;18.58;17.23;;;;;;;10.39;68.19;101974.88;6145028;22;104397;-54
2022/12/02 09:14:39;;;;;;;19.75;17.98;;;;;;;10.41;67.72;101986.31;6146685;22;102246;-54
2022/12/02 09:17:07;;;;;;;19.52;18.05;;;;;;;10.40;67.85;101976.50;6145176;22;102237;-54
2022/12/02 09:19:34;;;;;;;18.38;16.98;;;;;;;10.40;67.66;101981.97;6147745;22;102459;-54
2022/12/02 09:22:00;;;;;;;19.55;18.23;;;;;;;10.42;67.54;101980.66;6150227;22;103850;-53
2022/12/02 09:24:27;;;;;;;19.58;18.40;;;;;;;10.41;67.94;101978.16;6150064;22;101777;-54
2022/12/02 09:26:53;;;;;;;19.52;18.08;;;;;;;10.41;67.74;101978.16;6149617;22;102415;-54
2022/12/02 09:29:20;;;;;;;19.05;17.65;;;;;;;10.43;67.58;101976.03;6152958;22;102646;-54
2022/12/02 09:31:46;;;;;;;18.33;16.92;;;;;;;10.45;67.76;101980.16;6151004;22;103844;-54
2022/12/02 09:34:14;;;;;;;21.25;19.85;;;;;;;10.45;67.09;101987.50;6150247;22;102270;-54
2022/12/02 09:36:40;;;;;;;19.75;18.40;;;;;;;10.46;67.21;101981.00;6151237;22;102252;-54
2022/12/02 09:39:07;;;;;;;19.33;17.92;;;;;;;10.45;67.76;101984.78;6149935;22;102638;-53
2022/12/02 09:41:33;;;;;;;21.10;19.67;;;;;;;10.44;67.61;101994.84;6150619;22;103882;-54
2022/12/02 09:44:00;;;;;;;19.88;18.27;;;;;;;10.46;67.52;101990.00;6150828;22;101956;-54
2022/12/02 09:46:26;;;;;;;21.13;19.83;;;;;;;10.48;67.77;101992.47;6151141;22;102383;-54
2022/12/02 09:48:53;;;;;;;19.40;18.08;;;;;;;10.45;67.02;101998.38;6154102;22;102464;-54
2022/12/02 09:51:22;;;;;;;21.17;19.45;;;;;;;10.46;67.22;101989.16;6151312;22;103912;-54
2022/12/02 09:53:49;;;;;;;18.27;17.00;;;;;;;10.45;67.38;101985.59;6152888;22;102147;-54
2022/12/02 09:56:17;;;;;;;19.52;18.35;;;;;;;10.47;67.20;101988.09;6150638;22;102258;-53
2022/12/02 09:58:46;;;;;;;19.02;17.75;;;;;;;10.50;67.00;101993.06;6151896;22;102340;-54
2022/12/02 10:01:13;;;;;;;20.23;18.87;;;;;;;10.50;67.64;101993.06;6151319;22;103830;-54
2022/12/02 10:03:41;;;;;;;17.95;16.80;;;;;;;10.50;67.28;101993.06;6152852;22;102146;-54
2022/12/02 10:06:13;;;;;;;22.98;21.58;;;;;;;10.52;66.70;101990.91;6153080;22;102299;-56
2022/12/02 10:08:41;;;;;;;20.30;19.08;;;;;;;10.50;67.48;101987.63;6155348;22;102170;-54
2022/12/02 10:11:15;;;;;;;20.13;18.85;;;;;;;10.50;67.06;101987.63;6152671;22;104042;-54
2022/12/02 10:13:41;;;;;;;18.52;17.27;;;;;;;10.52;66.88;101989.00;6153697;22;102237;-54
2022/12/02 10:16:11;;;;;;;21.92;20.58;;;;;;;10.52;67.16;101985.47;6153846;22;102617;-54
2022/12/02 10:18:39;;;;;;;23.20;21.63;;;;;;;10.51;67.15;101989.28;6154153;22;102307;-54
2022/12/02 10:21:05;;;;;;;19.75;18.58;;;;;;;10.51;67.26;101997.44;6152879;22;104120;-54
2022/12/02 10:23:32;;;;;;;19.42;18.15;;;;;;;10.51;67.33;101994.72;6153508;22;102258;-54
2022/12/02 10:26:12;;;;;;;20.90;19.48;;;;;;;10.47;67.40;101998.97;6153604;22;102352;-58
2022/12/02 10:28:40;;;;;;;20.38;19.05;;;;;;;10.49;67.21;101991.38;6154347;22;102127;-53
2022/12/02 10:31:09;;;;;;;22.10;20.85;;;;;;;10.50;66.85;101995.78;6152703;22;107817;-54
2022/12/02 10:33:38;;;;;;;21.25;19.77;;;;;;;10.51;66.99;101997.44;6153561;22;102107;-54
2022/12/02 10:36:05;;;;;;;20.50;19.15;;;;;;;10.52;67.02;101999.09;6153944;22;102017;-54
2022/12/02 10:38:37;;;;;;;22.25;20.88;;;;;;;10.51;67.45;101998.25;6154439;22;102138;-54
2022/12/02 10:41:19;;;;;;;21.92;20.33;;;;;;;10.51;66.94;102005.59;6152580;22;103901;-54
2022/12/02 10:44:01;;;;;;;18.67;17.52;;;;;;;10.51;67.25;101998.25;6154042;22;102215;-53
2022/12/02 10:46:28;;;;;;;18.92;17.58;;;;;;;10.53;67.15;102003.44;6153369;22;101875;-54
2022/12/02 10:49:12;;;;;;;21.50;20.20;;;;;;;10.52;67.16;102004.53;6152708;22;102219;-54
2022/12/02 10:51:39;;;;;;;20.92;19.52;;;;;;;10.51;66.89;101994.72;6153339;22;104832;-54
2022/12/02 10:54:15;;;;;;;19.20;17.90;;;;;;;10.49;67.13;101996.84;6150603;22;102383;-54
2022/12/02 10:56:43;;;;;;;20.55;19.15;;;;;;;10.47;67.63;101998.97;6151571;22;101999;-54
2022/12/02 10:59:14;;;;;;;20.25;18.92;;;;;;;10.46;66.78;101997.34;6152709;22;102382;-54
2022/12/02 11:01:42;;;;;;;20.63;19.35;;;;;;;10.47;67.17;101999.81;6152242;22;103927;-54
2022/12/02 11:04:11;;;;;;;19.23;17.88;;;;;;;10.50;66.82;102001.22;6152008;22;102098;-54
2022/12/02 11:06:38;;;;;;;21.80;20.33;;;;;;;10.51;66.59;102005.59;6151845;22;102589;-54
2022/12/02 11:09:04;;;;;;;19.13;17.90;;;;;;;10.53;67.16;102003.44;6152684;22;102094;-54
2022/12/02 11:11:39;;;;;;;21.13;19.67;;;;;;;10.50;66.91;102004.78;6150227;22;104057;-54
2022/12/02 11:14:11;;;;;;;19.80;18.45;;;;;;;10.51;67.18;102011.03;6151912;22;101986;-54
2022/12/02 11:47:38;;;;;;;98.63;93.55;;;;;;;10.52;66.99;101993.63;4999097;28;102743;-54
2022/12/02 11:50:22;;;;;;;39.33;37.05;;;;;;;10.52;67.34;102002.63;4973250;28;102599;-54
2022/12/02 11:52:52;;;;;;;23.38;21.95;;;;;;;10.52;67.39;102007.25;4973144;28;104158;-54
2022/12/02 11:55:20;;;;;;;21.40;19.98;;;;;;;10.53;67.16;101995.28;4974424;28;102745;-54
2022/12/02 11:57:48;;;;;;;22.02;20.70;;;;;;;10.51;67.10;102000.97;4974528;28;102735;-53
2022/12/02 12:00:20;;;;;;;;;;;;;;;10.52;67.16;102008.06;4978250;28;102344;-54
2022/12/02 12:03:03;;;;;;;16.73;15.13;;;;;;;10.50;67.20;102003.97;4972985;28;104304;-54
2022/12/02 12:05:31;;;;;;;16.27;15.23;;;;;;;10.51;67.24;102005.59;4975885;28;101981;-54
2022/12/02 12:07:57;;;;;;;17.75;16.55;;;;;;;10.51;67.12;102013.75;4972364;28;103935;-54
2022/12/02 12:10:27;;;;;;;19.02;17.67;;;;;;;10.49;67.25;102013.16;4973040;28;102582;-54
2022/12/02 12:13:15;;;;;;;19.15;17.80;;;;;;;10.50;67.01;102014.84;4972693;28;103949;-54
2022/12/02 12:15:52;;;;;;;17.20;16.00;;;;;;;10.48;67.24;102009.63;4973994;28;102832;-54
2022/12/02 12:18:39;;;;;;;18.45;17.27;;;;;;;10.47;66.68;102020.75;4972537;28;102373;-53
2022/12/02 12:21:07;;;;;;;16.88;15.82;;;;;;;10.49;67.19;102018.59;4972748;28;102550;-54
2022/12/02 12:23:36;;;;;;;18.30;17.10;;;;;;;10.53;67.08;102014.34;4973291;28;103873;-54
2022/12/02 12:26:04;;;;;;;19.33;18.00;;;;;;;10.53;66.35;102019.78;4973251;28;102919;-54
2022/12/02 12:28:32;;;;;;;19.95;18.65;;;;;;;10.53;66.71;102019.78;4972071;28;102688;-54
2022/12/02 12:31:00;;;;;;;20.55;19.10;;;;;;;10.51;67.10;102016.50;4973831;28;102203;-54
2022/12/02 12:33:27;;;;;;;18.17;16.80;;;;;;;10.54;66.66;102016.84;4952230;28;108480;-54
2022/12/02 12:35:56;;;;;;;19.77;18.38;;;;;;;10.53;66.64;102012.47;4970568;28;102773;-54
2022/12/02 12:38:24;;;;;;;;;;;;;;;10.52;66.83;102013.50;4971237;28;102854;-54
2022/12/02 12:40:51;;;;;;;14.43;13.50;;;;;;;10.54;67.02;102016.00;4975410;28;102776;-54
2022/12/02 12:43:17;;;;;;;16.27;15.13;;;;;;;10.53;66.68;102019.78;4969599;28;103900;-54
2022/12/02 12:45:44;;;;;;;19.38;18.02;;;;;;;10.52;67.18;102015.41;4969437;28;102334;-54
2022/12/02 12:48:10;;;;;;;20.33;19.08;;;;;;;10.52;67.12;102018.13;4960473;28;102396;-54
2022/12/02 12:50:37;;;;;;;20.13;18.88;;;;;;;10.53;66.57;102014.34;4958158;28;102201;-54
2022/12/02 12:53:05;;;;;;;20.45;19.10;;;;;;;10.53;67.34;102017.06;4961563;28;103999;-54
2022/12/02 20:17:44;;;;;;;33.47;31.40;;;;;;;10.42;66.82;102186.63;5029654;27;104891;-54
2022/12/02 20:20:13;;;;;;;15.93;14.80;;;;;;;10.43;67.19;102180.16;5016792;27;102245;-54
2022/12/02 20:22:39;;;;;;;15.27;14.07;;;;;;;10.43;67.04;102183.69;5018254;27;103845;-54
2022/12/02 20:25:07;;;;;;;14.25;13.05;;;;;;;10.44;67.02;102181.81;5014845;27;102266;-55
2022/12/02 20:27:34;;;;;;;14.55;13.35;;;;;;;10.44;67.49;102189.97;5018549;27;102985;-53
2022/12/02 20:30:01;;;;;;;14.02;12.82;;;;;;;10.45;67.17;102187.00;5016822;27;102122;-52
2022/12/02 20:32:27;;;;;;;14.90;13.68;;;;;;;10.46;67.58;102188.69;5013652;28;103912;-53
2022/12/02 20:34:55;;;;;;;15.00;13.80;;;;;;;10.46;66.94;102187.84;5021991;27;102400;-52
2022/12/02 20:37:25;;;;;;;15.07;13.68;;;;;;;10.46;67.30;102190.59;5018845;27;102643;-53
2022/12/02 20:39:51;;;;;;;14.88;13.80;;;;;;;10.45;67.08;102192.44;5021378;27;102889;-52
2022/12/02 20:42:18;;;;;;;15.20;14.00;;;;;;;10.49;67.19;102193.63;5013181;27;103978;-52
2022/12/02 20:44:44;;;;;;;15.85;14.50;;;;;;;10.47;67.39;102200.41;5017270;27;102173;-52
2022/12/02 20:47:11;;;;;;;15.73;14.52;;;;;;;10.46;67.01;102201.47;5013482;27;102410;-52
2022/12/02 20:49:37;;;;;;;15.05;13.88;;;;;;;10.46;67.48;102193.31;5016423;27;102677;-52
2022/12/02 20:52:05;;;;;;;16.50;15.30;;;;;;;10.46;67.00;102196.03;5021710;27;103977;-53
2022/12/02 20:54:32;;;;;;;15.90;14.75;;;;;;;10.47;66.93;102194.94;5015892;27;102525;-53
2022/12/02 21:09:02;;;;;;;74.30;70.25;;;;;;;10.49;67.06;102199.06;4995378;28;102777;-54
2022/12/02 21:11:28;;;;;;;49.90;47.03;;;;;;;10.50;67.28;102191.75;4990792;28;102727;-54
2022/12/02 21:13:55;;;;;;;34.15;32.05;;;;;;;10.52;66.90;102203.22;4991449;28;104162;-54
2022/12/02 21:16:21;;;;;;;29.45;27.63;;;;;;;10.50;67.40;102200.75;4989210;28;102730;-54
2022/12/02 21:18:48;;;;;;;25.67;23.98;;;;;;;10.51;67.66;102196.97;4987886;27;102960;-55
2022/12/02 21:21:14;;;;;;;25.10;23.45;;;;;;;10.53;67.54;102200.28;4992656;28;102224;-54
2022/12/02 21:23:41;;;;;;;23.63;22.10;;;;;;;10.57;66.89;102200.66;4990426;28;104075;-54
2022/12/02 21:26:09;;;;;;;23.42;21.70;;;;;;;10.60;66.92;102200.16;4989212;28;102849;-54
2022/12/02 21:28:36;;;;;;;22.42;20.80;;;;;;;10.61;67.18;102201.00;4987603;28;102440;-54
2022/12/02 21:31:02;;;;;;;23.55;21.88;;;;;;;10.59;67.24;102193.88;4986319;28;102439;-55
2022/12/02 21:33:29;;;;;;;22.83;21.25;;;;;;;10.61;67.35;102201.84;4982780;28;104104;-54
2022/12/02 21:35:55;;;;;;;22.65;21.02;;;;;;;10.61;67.03;102212.72;5000260;28;102123;-54
2022/12/02 21:38:22;;;;;;;22.55;20.70;;;;;;;10.60;67.32;102200.16;4989239;28;102402;-54
2022/12/02 21:40:48;;;;;;;24.15;22.58;;;;;;;10.61;66.81;102201.84;5002080;28;102168;-54
2022/12/02 21:43:16;;;;;;;23.77;22.10;;;;;;;10.59;67.17;102199.31;4996119;28;103842;-54
2022/12/02 21:45:43;;;;;;;23.02;21.45;;;;;;;10.58;67.36;102205.03;4988243;28;102236;-54
2022/12/02 21:48:09;;;;;;;24.52;22.90;;;;;;;10.61;67.40;102207.28;4979854;28;102135;-54
2022/12/02 21:50:36;;;;;;;24.92;23.20;;;;;;;10.62;67.22;102206.22;4986801;28;102478;-54
2022/12/02 21:53:03;;;;;;;24.40;22.73;;;;;;;10.63;66.94;102205.13;4981586;28;103899;-54
2022/12/02 21:55:30;;;;;;;22.65;21.10;;;;;;;10.62;67.17;102200.75;4983822;28;102477;-54
2022/12/02 21:57:57;;;;;;;25.05;23.25;;;;;;;10.61;66.84;102196.38;4977258;28;102583;-54
2022/12/02 22:00:25;;;;;;;24.65;22.77;;;;;;;10.62;66.56;102200.75;4979829;28;102401;-54
2022/12/02 22:02:52;;;;;;;22.80;21.10;;;;;;;10.62;66.72;102203.47;4977252;28;104087;-54
2022/12/02 22:05:19;;;;;;;24.58;22.73;;;;;;;10.60;67.00;102202.88;4983818;28;102005;-54
2022/12/02 22:07:47;;;;;;;25.00;23.05;;;;;;;10.63;67.07;102193.41;4992888;28;102365;-54
2022/12/02 22:10:15;;;;;;;25.50;23.70;;;;;;;10.61;67.26;102207.28;4995888;28;102196;-54
2022/12/02 22:12:42;;;;;;;24.17;22.35;;;;;;;10.61;67.23;102210.00;5001773;27;103942;-54
2022/12/02 22:15:10;;;;;;;24.00;22.10;;;;;;;10.62;66.96;102208.94;5006385;28;102134;-54
2022/12/02 22:17:38;;;;;;;24.55;22.80;;;;;;;10.60;67.15;102200.16;5006914;28;101945;-54
2022/12/02 22:20:06;;;;;;;23.70;21.97;;;;;;;10.62;66.86;102202.66;5012437;28;102288;-54
2022/12/02 22:22:32;;;;;;;25.00;23.20;;;;;;;10.62;67.16;102213.53;5007050;28;104272;-54
2022/12/02 22:24:59;;;;;;;25.75;23.85;;;;;;;10.61;67.51;102204.56;5012200;28;102321;-54
2022/12/02 22:27:26;;;;;;;24.65;22.75;;;;;;;10.62;67.00;102198.03;5010678;28;102267;-54
2022/12/02 22:29:52;;;;;;;25.80;23.92;;;;;;;10.59;67.10;102209.41;5003884;28;102457;-54
2022/12/02 22:32:19;;;;;;;24.48;22.63;;;;;;;10.61;67.00;102210.00;5013367;28;104245;-54
2022/12/02 22:34:47;;;;;;;27.80;25.60;;;;;;;10.62;67.28;102210.81;5015023;28;102563;-54
2022/12/02 22:37:13;;;;;;;26.98;24.83;;;;;;;10.62;67.64;102214.38;5005276;28;102399;-54
2022/12/02 22:39:40;;;;;;;27.45;25.10;;;;;;;10.64;67.31;102216.84;5013466;28;102145;-54
2022/12/02 22:42:06;;;;;;;25.10;23.05;;;;;;;10.61;66.85;102207.28;5006338;28;103967;-54
2022/12/02 22:44:33;;;;;;;26.45;24.38;;;;;;;10.61;66.93;102209.19;5009407;28;101982;-54
2022/12/02 22:47:00;;;;;;;29.27;27.00;;;;;;;10.61;67.19;102215.44;5002665;28;102047;-54
2022/12/02 22:49:28;;;;;;;27.58;25.27;;;;;;;10.60;67.09;102211.03;5012940;28;102425;-54
2022/12/02 22:51:55;;;;;;;27.38;24.73;;;;;;;10.63;67.13;102213.31;5012102;28;103985;-54
2022/12/02 22:54:22;;;;;;;31.10;28.08;;;;;;;10.61;67.06;102218.16;5007978;28;102599;-54
2022/12/02 22:56:48;;;;;;;30.15;26.50;;;;;;;10.62;67.00;102211.66;5009864;28;102041;-54
2022/12/02 22:59:15;;;;;;;32.50;28.98;;;;;;;10.63;67.22;102210.56;5007970;28;102713;-54
2022/12/02 23:01:41;;;;;;;34.45;30.75;;;;;;;10.62;67.12;102208.94;5001702;28;103922;-54
2022/12/02 23:04:08;;;;;;;36.67;30.23;;;;;;;10.64;67.01;102205.97;5010146;28;102252;-54
2022/12/02 23:06:34;;;;;;;35.88;30.85;;;;;;;10.61;67.23;102218.16;5004392;28;102244;-54
2022/12/02 23:09:02;;;;;;;39.47;34.72;;;;;;;10.61;67.49;102210.00;5004467;28;102787;-54
2022/12/02 23:11:29;;;;;;;37.95;32.92;;;;;;;10.60;67.98;102205.59;4999660;28;103910;-54
2022/12/02 23:13:55;;;;;;;35.67;30.60;;;;;;;10.62;66.98;102208.09;5004831;28;102364;-54
2022/12/02 23:16:22;;;;;;;36.75;32.90;;;;;;;10.63;66.92;102207.84;5011135;28;103184;-54
2022/12/02 23:18:48;;;;;;;36.75;32.80;;;;;;;10.61;66.83;102207.28;5004344;28;102594;-54
2022/12/02 23:21:16;;;;;;;37.78;32.53;;;;;;;10.62;67.49;102214.38;4999303;28;103887;-54
2022/12/02 23:23:42;;;;;;;35.97;32.28;;;;;;;10.63;67.30;102215.19;5001429;28;105090;-54
2022/12/02 23:26:12;;;;;;;34.45;30.80;;;;;;;10.62;67.38;102216.28;5008132;27;102676;-54
2022/12/02 23:28:38;;;;;;;33.58;29.30;;;;;;;10.64;67.44;102216.84;5006632;28;102394;-54
2022/12/02 23:31:05;;;;;;;32.83;29.45;;;;;;;10.62;67.33;102217.09;5006797;28;104439;-54
2022/12/02 23:33:32;;;;;;;34.90;31.15;;;;;;;10.63;67.16;102220.66;5010428;27;102099;-54
2022/12/02 23:35:58;;;;;;;34.85;31.20;;;;;;;10.62;67.10;102225.25;5002575;28;102114;-54
2022/12/02 23:38:25;;;;;;;35.45;31.70;;;;;;;10.62;67.34;102219.81;5002617;28;102582;-54
2022/12/02 23:40:52;;;;;;;34.88;31.45;;;;;;;10.63;67.27;102226.91;5000640;28;104511;-54
2022/12/02 23:43:20;;;;;;;36.28;32.90;;;;;;;10.63;67.68;102232.34;5008814;28;102119;-54
2022/12/02 23:45:46;;;;;;;35.30;31.88;;;;;;;10.62;67.33;102230.72;5007332;28;102383;-54
2022/12/02 23:48:13;;;;;;;34.10;30.60;;;;;;;10.63;67.16;102232.34;5008947;28;102392;-54
2022/12/02 23:50:40;;;;;;;34.65;31.25;;;;;;;10.62;67.22;102236.16;5007756;28;104100;-54
2022/12/02 23:53:06;;;;;;;33.97;30.42;;;;;;;10.64;67.51;102231.31;5006198;27;103411;-54
2022/12/02 23:55:33;;;;;;;34.42;31.02;;;;;;;10.63;67.01;102229.63;5007587;28;102438;-54
2022/12/02 23:57:59;;;;;;;37.20;32.67;;;;;;;10.64;67.68;102233.19;5009159;28;105124;-54
